Aeroporto :
LOGIN :

Iscrizione | Disclaimer

   EN    FR    IT 

 










Sommario :    VFR   VFR Marginale   IFR   IFR Intensivo   IFR Molto Intensivo
Visibilità : 
Base nubi : 
>= 8 km
>= 3000ft
5 / 8 km
1000 / 3000 ft
1500m / 5 km
500 / 1000 ft
800 / 1500m
200 / 500 ft
< 800m
< 200 ft
Simboli :   Temporali  Nebbia  Neve Forte  Precipitazioni Forti  Vento > 20 kt
SIGMETs :   Varie  Temporali  Ghiacco  Turbolenza  Onda orograficha  Ceneri Vulcaniche






- Altitudine del aeroporto : 115 ft
- Codice IATA : HER


LGIR - Nikos Kazantzakis

ULTIMO METAR :
  • 020150Z 19004KT 9999 SCT020TCU 18/13 Q1009 NOSIG

METARs OBSOLETI :
  • 020120Z 19004KT 9999 SCT020TCU 18/13 Q1009 NOSIG
  • 020050Z 19004KT 9999 SCT020TCU 18/13 Q1009 NOSIG
  • 020020Z 19004KT 9999 SCT020 18/13 Q1009 NOSIG
  • 012350Z 19004KT 9999 SCT020 18/13 Q1009 NOSIG
  • 012320Z 20004KT 9999 SCT020 19/13 Q1009 NOSIG
  • 012250Z 20004KT 9999 SCT020 19/13 Q1009 NOSIG

TAF TAF LGIR
Valido dal 02 a 00 ore il 03 a 00 ore UTC


012300Z 0200/0224 VRB05KT 9999 SCT020 SCT080
BECMG 0200/0204 31010KT
PROB40
TEMPO 0200/0212 5000 RA FEW018TCU BKN020



MetMap, La meteo Aeronautica in un colpo d'occhio ! - Copyright ORBIFLY Dicembre 2007 - Disclaimer

ORBIFLY MET'MAP TEAM :

Programmazione e sviluppo : Alexandra Zaïnal
Concezione : Baudouin d'Aumeries
Aiuto per la programmazione : Marc-Olivier Méhu
Supporto tecnico e logistico : Manuel Goepfert
Aiuto per la traduzione : Arnaldo La Scala

Contatto : metmap@orbifly.com




FONTI E CREDITI :

   NOAA